createdAt,value
2023-01-13T00:01:48.733Z,11.50
2023-01-13T00:04:15.675Z,11.20
2023-01-13T00:06:42.624Z,8.07
2023-01-13T00:09:09.584Z,11.73
2023-01-13T00:11:36.595Z,6.97
2023-01-13T00:14:03.679Z,13.27
2023-01-13T00:16:30.591Z,9.53
2023-01-13T00:18:57.697Z,9.13
2023-01-13T00:21:24.970Z,9.33
2023-01-13T00:23:54.097Z,6.87
2023-01-13T00:26:23.896Z,8.27
2023-01-13T00:28:51.753Z,6.17
2023-01-13T00:31:21.404Z,8.53
2023-01-13T00:33:51.631Z,9.37
2023-01-13T00:36:20.592Z,6.17
2023-01-13T00:38:48.227Z,9.27
2023-01-13T00:41:17.894Z,8.67
2023-01-13T00:43:45.469Z,7.63
2023-01-13T00:46:15.100Z,8.17
2023-01-13T00:48:42.300Z,8.70
2023-01-13T00:51:13.011Z,7.70
2023-01-13T00:53:43.458Z,7.40
2023-01-13T00:56:24.326Z,6.87
2023-01-13T00:58:58.937Z,7.47
2023-01-13T01:01:26.171Z,11.23
2023-01-13T01:03:54.619Z,8.23
2023-01-13T01:06:26.991Z,8.27
2023-01-13T01:08:56.922Z,13.87
2023-01-13T01:11:30.178Z,9.17
2023-01-13T01:13:59.141Z,12.77
2023-01-13T01:16:28.642Z,10.87
2023-01-13T01:18:56.289Z,12.57
2023-01-13T01:21:24.899Z,10.37
2023-01-13T01:23:52.220Z,6.53
2023-01-13T01:26:27.206Z,15.17
2023-01-13T01:28:54.720Z,6.57
2023-01-13T01:31:24.344Z,9.67
2023-01-13T01:33:51.959Z,7.63
2023-01-13T01:36:20.623Z,6.00
2023-01-13T01:38:49.088Z,9.93
2023-01-13T01:41:23.783Z,9.30
2023-01-13T01:44:07.032Z,8.97
2023-01-13T01:46:44.760Z,8.83
2023-01-13T01:49:17.760Z,6.70
2023-01-13T01:51:52.529Z,7.33
2023-01-13T01:54:34.724Z,8.57
2023-01-13T01:57:01.711Z,11.00
2023-01-13T01:59:32.255Z,4.60
2023-01-13T02:01:59.512Z,6.07
2023-01-13T02:04:32.859Z,8.30
2023-01-13T02:07:01.556Z,6.97
2023-01-13T02:09:29.058Z,8.47
2023-01-13T02:12:14.622Z,7.53
2023-01-13T02:14:42.446Z,6.90
2023-01-13T02:17:21.425Z,8.03
2023-01-13T02:20:28.915Z,8.43
2023-01-13T02:23:42.018Z,6.20
2023-01-13T02:26:39.995Z,4.70
2023-01-13T02:29:53.650Z,6.27
2023-01-13T02:32:33.325Z,6.50
2023-01-13T02:35:12.205Z,6.27
2023-01-13T02:37:42.974Z,6.80
2023-01-13T02:40:28.262Z,7.07
2023-01-13T02:43:39.705Z,9.23
2023-01-13T02:46:14.547Z,4.83
2023-01-13T02:48:44.813Z,9.20
2023-01-13T02:51:16.845Z,8.60
2023-01-13T02:53:51.106Z,6.30
2023-01-13T02:56:19.717Z,8.83
2023-01-13T02:58:47.540Z,8.90
2023-01-13T03:01:14.720Z,8.57
2023-01-13T03:03:41.787Z,8.27
2023-01-13T03:06:44.181Z,10.33
2023-01-13T03:09:31.080Z,7.00
2023-01-13T03:12:19.145Z,8.35
2023-01-13T03:15:10.661Z,8.67
2023-01-13T03:17:40.342Z,6.77
2023-01-13T03:20:22.062Z,9.07
2023-01-13T03:23:03.379Z,4.47
2023-01-13T03:25:37.259Z,4.67
2023-01-13T03:28:08.831Z,5.13
2023-01-13T03:30:42.566Z,9.07
2023-01-13T03:33:17.837Z,7.30
2023-01-13T03:35:49.339Z,7.70
2023-01-13T03:38:26.019Z,8.73
2023-01-13T03:40:56.747Z,4.32
2023-01-13T03:43:54.157Z,7.37
2023-01-13T03:46:32.369Z,8.15
2023-01-13T03:49:03.235Z,10.00
2023-01-13T03:51:33.096Z,6.57
2023-01-13T03:54:04.881Z,5.83
2023-01-13T03:56:42.410Z,9.33
2023-01-13T03:59:16.666Z,5.40
2023-01-13T04:01:51.616Z,9.00
2023-01-13T04:04:24.639Z,6.43
2023-01-13T04:07:30.852Z,6.30
2023-01-13T04:10:01.844Z,9.97
2023-01-13T04:13:04.274Z,5.37
2023-01-13T04:15:41.098Z,6.43
2023-01-13T04:18:30.691Z,7.40
2023-01-13T04:21:00.307Z,4.70
2023-01-13T04:23:28.263Z,8.57
2023-01-13T04:25:56.053Z,5.90
2023-01-13T04:28:23.404Z,7.10
2023-01-13T04:30:50.757Z,5.37
2023-01-13T04:33:19.433Z,8.37
2023-01-13T04:35:47.976Z,8.33
2023-01-13T04:38:17.748Z,8.97
2023-01-13T04:40:45.264Z,5.77
2023-01-13T04:43:12.520Z,6.07
2023-01-13T04:45:39.480Z,13.73
2023-01-13T04:48:06.744Z,8.80
2023-01-13T04:50:34.309Z,9.17
2023-01-13T04:53:01.768Z,10.57
2023-01-13T04:55:29.095Z,7.53
2023-01-13T04:57:56.166Z,6.07
2023-01-13T05:00:23.924Z,8.25
2023-01-13T05:02:51.534Z,6.60
2023-01-13T05:05:19.232Z,8.37
2023-01-13T05:07:46.604Z,6.17
2023-01-13T05:10:13.789Z,4.27
2023-01-13T05:12:59.672Z,8.03
2023-01-13T05:15:45.433Z,8.10
2023-01-13T05:18:13.018Z,7.80
2023-01-13T05:20:40.047Z,7.43
2023-01-13T05:23:25.641Z,10.67
2023-01-13T05:25:52.793Z,6.60
2023-01-13T05:28:19.756Z,7.37
2023-01-13T05:30:49.442Z,10.43
2023-01-13T05:33:20.407Z,10.40
2023-01-13T05:35:48.253Z,6.33
2023-01-13T05:38:15.981Z,11.33
2023-01-13T05:41:01.952Z,6.10
2023-01-13T05:43:29.311Z,7.63
2023-01-13T05:45:56.065Z,9.13
2023-01-13T05:48:25.280Z,9.20
2023-01-13T05:50:53.996Z,5.47
2023-01-13T05:53:21.738Z,11.27
2023-01-13T05:55:49.588Z,8.30
2023-01-13T05:58:18.125Z,7.63
2023-01-13T06:00:45.489Z,10.10
2023-01-13T06:03:13.029Z,5.63
2023-01-13T06:05:41.190Z,4.90
2023-01-13T06:08:09.115Z,8.47
2023-01-13T06:10:36.702Z,6.77
2023-01-13T06:13:04.632Z,9.43
2023-01-13T06:15:32.450Z,5.63
2023-01-13T06:18:01.892Z,8.17
2023-01-13T06:20:28.928Z,7.90
2023-01-13T06:22:55.849Z,7.23
2023-01-13T06:25:28.719Z,6.30
2023-01-13T06:27:56.978Z,6.80
2023-01-13T06:30:23.903Z,8.43
2023-01-13T06:32:55.421Z,9.77
2023-01-13T06:35:29.875Z,7.80
2023-01-13T06:37:59.378Z,6.77
2023-01-13T06:40:26.491Z,9.10
2023-01-13T06:43:16.130Z,6.60
2023-01-13T06:45:48.008Z,7.87
2023-01-13T06:48:16.064Z,6.33
2023-01-13T06:50:43.386Z,5.70
2023-01-13T06:53:10.779Z,9.50
2023-01-13T06:55:37.887Z,10.00
2023-01-13T06:58:05.147Z,12.70
2023-01-13T07:00:38.124Z,7.57
2023-01-13T07:03:14.607Z,9.63
2023-01-13T07:05:43.338Z,7.07
2023-01-13T07:08:10.999Z,9.17
2023-01-13T07:10:38.268Z,10.70
2023-01-13T07:13:24.695Z,9.43
2023-01-13T07:15:59.468Z,9.18
2023-01-13T07:18:28.665Z,5.93
2023-01-13T07:20:57.363Z,9.83
2023-01-13T07:23:25.671Z,9.13
2023-01-13T07:25:55.831Z,10.00
2023-01-13T07:28:23.640Z,6.07
2023-01-13T07:30:50.574Z,9.17
2023-01-13T07:33:18.710Z,7.73
2023-01-13T07:35:46.907Z,9.33
2023-01-13T07:38:14.085Z,7.40
2023-01-13T07:40:41.117Z,4.90
2023-01-13T07:43:30.119Z,5.67
2023-01-13T07:46:05.454Z,8.73
2023-01-13T07:48:34.626Z,11.50
2023-01-13T07:51:06.992Z,5.60
2023-01-13T07:53:34.931Z,11.73
2023-01-13T07:56:03.765Z,7.67
2023-01-13T07:58:30.967Z,9.70
2023-01-13T08:00:58.313Z,8.97
2023-01-13T08:03:26.651Z,6.53
2023-01-13T08:05:53.707Z,4.20
2023-01-13T08:08:20.633Z,12.03
2023-01-13T08:10:47.533Z,6.80
2023-01-13T08:13:20.335Z,7.97
2023-01-13T08:15:52.412Z,7.23
2023-01-13T08:18:22.413Z,9.77
2023-01-13T08:20:49.966Z,8.47
2023-01-13T08:23:16.972Z,6.57
2023-01-13T08:25:44.426Z,6.40
2023-01-13T08:28:12.156Z,7.20
2023-01-13T08:30:39.403Z,11.50
2023-01-13T08:33:08.662Z,6.73
2023-01-13T08:35:40.132Z,6.47
2023-01-13T08:38:08.210Z,5.63
2023-01-13T08:40:35.523Z,7.37
2023-01-13T08:43:02.881Z,8.23
2023-01-13T08:45:29.847Z,6.20
2023-01-13T08:47:56.800Z,8.07
2023-01-13T08:50:23.826Z,10.37
2023-01-13T08:52:50.815Z,10.80
2023-01-13T08:55:17.723Z,8.60
2023-01-13T08:57:44.763Z,7.70
2023-01-13T09:00:13.129Z,6.90
2023-01-13T09:02:40.106Z,9.70
2023-01-13T09:05:08.506Z,7.53
2023-01-13T09:07:37.613Z,10.33
2023-01-13T09:10:07.363Z,10.67
2023-01-13T09:12:53.343Z,7.03
2023-01-13T09:15:21.616Z,9.67
2023-01-13T09:17:48.650Z,11.80
2023-01-13T09:20:15.911Z,9.63
2023-01-13T09:22:42.834Z,8.17
2023-01-13T09:25:10.306Z,7.30
2023-01-13T09:27:37.435Z,8.27
2023-01-13T09:30:05.941Z,6.93
2023-01-13T09:32:33.192Z,9.47
2023-01-13T09:35:00.282Z,9.23
2023-01-13T09:37:31.652Z,8.37
2023-01-13T09:39:58.571Z,6.43
2023-01-13T09:42:52.925Z,9.50
2023-01-13T09:45:42.729Z,11.57
2023-01-13T09:48:16.901Z,7.47
2023-01-13T09:51:02.335Z,7.87
2023-01-13T09:53:33.138Z,14.97
2023-01-13T09:56:00.604Z,6.20
2023-01-13T09:58:27.602Z,7.03
2023-01-13T10:01:20.220Z,8.83
2023-01-13T10:03:49.432Z,8.80
2023-01-13T10:06:19.538Z,9.77
2023-01-13T10:08:48.494Z,4.83
2023-01-13T10:11:43.114Z,8.33
2023-01-13T10:14:18.493Z,7.93
2023-01-13T10:17:11.972Z,6.77
2023-01-13T10:19:48.664Z,5.87
2023-01-13T10:22:37.431Z,6.88
2023-01-13T10:25:39.439Z,10.97
2023-01-13T10:28:17.067Z,9.73
2023-01-13T10:30:47.850Z,10.77
2023-01-13T10:33:17.669Z,5.30
2023-01-13T10:35:55.242Z,11.20
2023-01-13T10:38:27.141Z,6.97
2023-01-13T10:41:00.219Z,8.90
2023-01-13T10:43:29.722Z,7.17
2023-01-13T10:46:06.282Z,7.00
2023-01-13T10:48:42.405Z,8.25
2023-01-13T10:51:47.711Z,8.55
2023-01-13T10:54:22.402Z,7.00
2023-01-13T10:56:50.795Z,6.63
2023-01-13T10:59:22.415Z,6.50
2023-01-13T11:02:26.993Z,6.77
2023-01-13T11:04:54.206Z,8.07
2023-01-13T11:07:30.181Z,7.00
2023-01-13T11:10:09.281Z,9.00
2023-01-13T11:12:54.218Z,6.50
2023-01-13T11:15:25.137Z,9.67
2023-01-13T11:18:01.494Z,7.93
2023-01-13T11:20:34.069Z,9.25
2023-01-13T11:23:07.558Z,5.90
2023-01-13T11:25:45.230Z,7.23
2023-01-13T11:28:30.767Z,8.60
2023-01-13T11:31:25.534Z,7.57
2023-01-13T11:34:21.382Z,7.47
2023-01-13T11:36:52.566Z,7.47
2023-01-13T11:39:27.737Z,8.00
2023-01-13T11:42:20.349Z,6.23
2023-01-13T11:45:07.117Z,8.63
2023-01-13T11:47:35.631Z,6.90
2023-01-13T11:50:03.665Z,14.63
2023-01-13T11:52:42.881Z,8.30
2023-01-13T11:55:22.667Z,8.20
2023-01-13T11:58:00.427Z,10.90
2023-01-13T12:00:40.815Z,10.77
2023-01-13T12:03:10.689Z,11.90
2023-01-13T12:05:44.475Z,8.27
2023-01-13T12:08:31.857Z,9.57
2023-01-13T12:11:06.072Z,8.57
2023-01-13T12:14:04.753Z,9.87
2023-01-13T12:16:32.773Z,7.17
2023-01-13T12:19:11.676Z,11.67
2023-01-13T12:21:40.542Z,10.70
2023-01-13T12:24:10.832Z,8.50
2023-01-13T12:26:42.740Z,9.97
2023-01-13T12:29:15.019Z,12.10
2023-01-13T12:31:43.897Z,10.90
2023-01-13T12:34:10.800Z,13.57
2023-01-13T12:36:40.743Z,9.03
2023-01-13T12:39:19.991Z,10.57
2023-01-13T12:42:53.488Z,8.57
2023-01-13T12:45:40.563Z,12.80
2023-01-13T12:48:27.371Z,9.68
2023-01-13T12:51:00.805Z,10.80
2023-01-13T12:53:32.953Z,10.37
2023-01-13T12:56:37.346Z,15.40
2023-01-13T12:59:19.913Z,11.07
2023-01-13T13:01:52.594Z,14.27
2023-01-13T13:04:21.465Z,11.87
2023-01-13T13:07:10.511Z,11.43
2023-01-13T13:09:45.119Z,9.50
2023-01-13T13:12:49.393Z,13.70
2023-01-13T13:15:25.710Z,11.77
2023-01-13T13:18:17.359Z,13.60
2023-01-13T13:21:04.308Z,12.47
2023-01-13T13:23:40.425Z,11.83
2023-01-13T13:26:13.151Z,12.53
2023-01-13T13:28:49.017Z,9.70
2023-01-13T13:31:18.838Z,12.27
2023-01-13T13:34:11.034Z,11.50
2023-01-13T13:36:53.132Z,12.93
2023-01-13T13:39:49.282Z,11.40
2023-01-13T13:42:39.976Z,10.77
2023-01-13T13:45:51.950Z,14.23
2023-01-13T13:48:27.170Z,14.70
2023-01-13T13:51:02.368Z,12.73
2023-01-13T13:53:40.287Z,10.43
2023-01-13T13:56:18.866Z,13.47
2023-01-13T13:58:47.805Z,12.33
2023-01-13T14:01:29.086Z,12.83
2023-01-13T14:04:12.637Z,9.70
2023-01-13T14:06:50.612Z,11.77
2023-01-13T14:09:19.070Z,11.60
2023-01-13T14:11:56.929Z,13.13
2023-01-13T14:14:25.089Z,13.60
2023-01-13T14:16:54.895Z,14.23
2023-01-13T14:19:35.574Z,10.17
2023-01-13T14:22:05.649Z,12.67
2023-01-13T14:24:33.032Z,11.83
2023-01-13T14:27:11.398Z,10.73
2023-01-13T14:29:38.523Z,10.83
2023-01-13T14:32:07.436Z,11.00
2023-01-13T14:34:35.599Z,10.67
2023-01-13T14:37:03.832Z,13.77
2023-01-13T14:39:40.519Z,12.10
2023-01-13T14:44:46.157Z,12.53
2023-01-13T14:47:25.527Z,10.33
2023-01-13T14:50:16.247Z,12.37
2023-01-13T14:52:57.400Z,13.17
2023-01-13T14:55:29.519Z,16.70
2023-01-13T14:58:21.415Z,14.63
2023-01-13T15:00:50.107Z,11.10
2023-01-13T15:03:18.817Z,20.50
2023-01-13T15:05:52.072Z,17.07
2023-01-13T15:08:28.872Z,13.60
2023-01-13T15:13:36.323Z,13.17
2023-01-13T15:16:07.018Z,12.25
2023-01-13T15:18:35.777Z,16.37
2023-01-13T15:21:02.621Z,15.40
2023-01-13T15:23:29.637Z,11.37
2023-01-13T15:25:56.541Z,17.53
2023-01-13T15:28:25.513Z,19.63
2023-01-13T15:30:54.464Z,10.37
2023-01-13T15:33:22.351Z,16.10
2023-01-13T15:35:51.263Z,15.67
2023-01-13T15:38:21.392Z,16.47
2023-01-13T15:40:49.963Z,15.40
2023-01-13T15:43:38.664Z,18.03
2023-01-13T15:46:36.156Z,17.80
2023-01-13T15:49:10.086Z,17.23
2023-01-13T15:51:37.151Z,16.97
2023-01-13T15:54:04.068Z,15.53
2023-01-13T15:56:31.765Z,18.37
2023-01-13T15:58:58.733Z,16.47
2023-01-13T16:01:25.808Z,14.83
2023-01-13T16:03:52.829Z,17.77
2023-01-13T16:06:23.426Z,15.43
2023-01-13T16:08:50.428Z,16.10
2023-01-13T16:11:17.392Z,15.07
2023-01-13T16:13:44.252Z,19.37
2023-01-13T16:16:19.301Z,18.30
2023-01-13T16:18:46.764Z,14.63
2023-01-13T16:21:14.596Z,26.90
2023-01-13T16:23:41.802Z,18.77
2023-01-13T16:26:18.348Z,19.77
2023-01-13T16:28:45.678Z,15.38
2023-01-13T16:31:26.814Z,15.23
2023-01-13T16:33:54.246Z,16.77
2023-01-13T16:36:22.672Z,19.77
2023-01-13T16:38:51.844Z,18.47
2023-01-13T16:41:22.417Z,32.43
2023-01-13T16:43:49.368Z,20.07
2023-01-13T16:46:28.183Z,16.43
2023-01-13T16:49:01.305Z,16.47
2023-01-13T16:51:28.554Z,17.97
2023-01-13T16:53:55.409Z,18.80
2023-01-13T16:56:28.440Z,14.30
2023-01-13T16:58:58.453Z,17.73
2023-01-13T17:01:31.360Z,19.43
2023-01-13T17:03:59.159Z,17.23
2023-01-13T17:06:32.318Z,24.03
2023-01-13T17:09:07.600Z,21.63
2023-01-13T17:11:34.783Z,17.63
2023-01-13T17:14:07.309Z,20.43
2023-01-13T17:16:46.940Z,13.97
2023-01-13T17:19:13.983Z,14.57
2023-01-13T17:21:41.273Z,16.23
2023-01-13T17:24:09.861Z,16.97
2023-01-13T17:26:37.883Z,20.93
2023-01-13T17:29:06.759Z,16.57
2023-01-13T17:31:35.260Z,16.97
2023-01-13T17:34:03.476Z,18.60
2023-01-13T17:36:31.164Z,14.00
2023-01-13T17:38:58.613Z,19.37
2023-01-13T17:41:25.782Z,16.47
2023-01-13T17:43:53.531Z,20.83
2023-01-13T17:46:22.719Z,19.37
2023-01-13T17:48:51.413Z,16.43
2023-01-13T17:51:19.744Z,22.67
2023-01-13T17:53:46.854Z,21.27
2023-01-13T17:56:15.272Z,24.23
2023-01-13T17:58:42.161Z,15.13
2023-01-13T18:01:13.561Z,20.43
2023-01-13T18:03:40.452Z,13.70
2023-01-13T18:06:11.352Z,12.47
2023-01-13T18:08:38.285Z,22.07
2023-01-13T18:11:05.334Z,15.93
2023-01-13T18:13:34.947Z,15.47
2023-01-13T18:16:13.299Z,18.83
2023-01-13T18:18:42.256Z,14.50
2023-01-13T18:21:38.040Z,19.87
2023-01-13T18:24:24.717Z,20.43
2023-01-13T18:27:10.463Z,19.73
2023-01-13T18:29:37.390Z,18.17
2023-01-13T18:32:04.535Z,16.90
2023-01-13T18:34:31.811Z,19.97
2023-01-13T18:36:58.693Z,18.47
2023-01-13T18:39:25.541Z,21.93
2023-01-13T18:42:11.021Z,16.67
2023-01-13T18:44:38.026Z,17.23
2023-01-13T18:47:04.938Z,20.10
2023-01-13T18:49:31.952Z,18.23
2023-01-13T18:51:58.914Z,22.73
2023-01-13T18:54:25.845Z,20.53
2023-01-13T18:56:52.864Z,17.30
2023-01-13T18:59:19.742Z,18.03
2023-01-13T19:01:46.649Z,22.27
2023-01-13T19:04:16.939Z,20.40
2023-01-13T19:06:49.337Z,17.73
2023-01-13T19:09:18.070Z,21.80
2023-01-13T19:11:46.971Z,18.23
2023-01-13T19:14:34.198Z,15.40
2023-01-13T19:17:02.827Z,22.23
2023-01-13T19:19:32.162Z,16.67
2023-01-13T19:21:59.100Z,14.77
2023-01-13T19:24:26.219Z,19.30
2023-01-13T19:26:54.730Z,17.63
2023-01-13T19:29:21.773Z,16.73
2023-01-13T19:31:48.872Z,19.83
2023-01-13T19:34:15.989Z,21.87
2023-01-13T19:36:43.099Z,18.70
2023-01-13T19:39:10.368Z,19.77
2023-01-13T19:41:56.111Z,18.93
2023-01-13T19:44:41.898Z,26.77
2023-01-13T19:47:08.788Z,16.67
2023-01-13T19:49:35.744Z,18.60
2023-01-13T19:52:02.624Z,17.63
2023-01-13T19:54:29.580Z,20.43
2023-01-13T19:56:56.502Z,13.17
2023-01-13T19:59:29.182Z,18.53
2023-01-13T20:01:59.603Z,15.33
2023-01-13T20:04:38.487Z,17.50
2023-01-13T20:07:06.634Z,23.37
2023-01-13T20:09:35.793Z,22.27
2023-01-13T20:12:09.113Z,15.90
2023-01-13T20:14:36.157Z,15.90
2023-01-13T20:17:03.202Z,17.93
2023-01-13T20:19:30.061Z,17.63
2023-01-13T20:21:56.980Z,19.53
2023-01-13T20:24:26.172Z,21.83
2023-01-13T20:26:54.569Z,16.70
2023-01-13T20:29:22.346Z,19.33
2023-01-13T20:31:50.620Z,17.90
2023-01-13T20:34:20.436Z,15.73
2023-01-13T20:36:49.221Z,16.70
2023-01-13T20:39:26.726Z,13.03
2023-01-13T20:42:13.009Z,13.57
2023-01-13T20:44:39.933Z,13.50
2023-01-13T20:47:07.380Z,15.30
2023-01-13T20:49:36.304Z,18.00
2023-01-13T20:52:09.330Z,11.90
2023-01-13T20:54:40.644Z,17.23
2023-01-13T20:57:10.062Z,19.37
2023-01-13T20:59:38.461Z,17.53
2023-01-13T21:02:07.861Z,19.90
2023-01-13T21:04:34.747Z,15.17
2023-01-13T21:07:01.685Z,14.23
2023-01-13T21:09:29.409Z,17.40
2023-01-13T21:12:14.969Z,25.53
2023-01-13T21:15:00.498Z,14.57
2023-01-13T21:17:46.131Z,23.80
2023-01-13T21:20:14.764Z,21.00
2023-01-13T21:22:48.995Z,14.43
2023-01-13T21:25:18.207Z,19.93
2023-01-13T21:27:45.239Z,18.70
2023-01-13T21:30:15.617Z,17.97
2023-01-13T21:32:44.300Z,28.17
2023-01-13T21:35:12.236Z,24.87
2023-01-13T21:37:40.594Z,15.83
2023-01-13T21:40:11.257Z,18.10
2023-01-13T21:42:56.873Z,18.63
2023-01-13T21:45:42.233Z,24.57
2023-01-13T21:48:09.273Z,16.37
2023-01-13T21:50:37.959Z,16.60
2023-01-13T21:53:05.337Z,19.87
2023-01-13T21:55:32.986Z,20.50
2023-01-13T21:58:20.143Z,14.53
2023-01-13T22:00:49.248Z,22.30
2023-01-13T22:03:18.577Z,22.40
2023-01-13T22:05:46.412Z,21.90
2023-01-13T22:08:13.731Z,24.87
2023-01-13T22:11:10.072Z,17.90
2023-01-13T22:13:57.152Z,23.47
2023-01-13T22:16:25.579Z,15.37
2023-01-13T22:18:52.649Z,16.07
2023-01-13T22:21:20.085Z,14.50
2023-01-13T22:23:47.236Z,15.97
2023-01-13T22:26:14.064Z,21.50
2023-01-13T22:28:42.840Z,15.00
2023-01-13T22:31:15.381Z,9.50
2023-01-13T22:33:43.205Z,17.83
2023-01-13T22:36:10.267Z,21.77
2023-01-13T22:38:37.266Z,25.40
2023-01-13T22:41:06.832Z,22.33
2023-01-13T22:43:35.281Z,25.47
2023-01-13T22:46:08.107Z,29.03
2023-01-13T22:48:35.826Z,17.13
2023-01-13T22:51:07.884Z,14.13
2023-01-13T22:53:36.011Z,16.83
2023-01-13T22:56:03.089Z,16.57
2023-01-13T22:58:30.488Z,17.30
2023-01-13T23:01:10.447Z,16.37
2023-01-13T23:03:37.944Z,26.57
2023-01-13T23:06:05.881Z,23.30
2023-01-13T23:08:34.064Z,15.17
2023-01-13T23:11:03.717Z,15.93
2023-01-13T23:13:30.587Z,18.03
2023-01-13T23:16:05.533Z,20.63
2023-01-13T23:18:32.743Z,16.73
2023-01-13T23:21:08.282Z,14.00
2023-01-13T23:23:35.530Z,16.80
2023-01-13T23:26:04.127Z,26.10
2023-01-13T23:28:33.359Z,17.80
2023-01-13T23:31:00.548Z,17.53
2023-01-13T23:33:27.473Z,23.10
2023-01-13T23:36:04.169Z,22.33
2023-01-13T23:38:31.825Z,24.20
2023-01-13T23:40:59.277Z,25.33
2023-01-13T23:43:27.203Z,19.77
2023-01-13T23:46:02.504Z,16.40
2023-01-13T23:48:29.678Z,17.60
2023-01-13T23:51:00.940Z,20.30
2023-01-13T23:53:33.505Z,28.33
2023-01-13T23:56:02.105Z,22.43
2023-01-13T23:58:29.923Z,23.17
